Licenciado Benito Juarez International Airport
MMMX : now visible

Airfield :











YOU CAN JOIN US ON...

 
LOGIN :

Register | Disclaimer

   EN    FR    IT 

 









Legend :    VFR   Marginal VFR   IFR   Intensive IFR   Very Intensive IFR
Visi :
Ceiling :
>= 8 km
>= 3000ft
5 to 8 km
1000 to 3000 ft
1500m to 5 km
500 to 1000 ft
800 to 1500m
200 to 500 ft
< 800m
< 200 ft
Symbols :   Thunderstorms  Fog  Heavy snow  Heavy precipitations  Wind > 20 kt







- Airport Elevation : 7316 ft
- IATA code : MEX


MMMX - Licenciado Benito Juarez International

CURRENT METAR :
  • 270347Z 36014KT 9SM BKN020 21/08 A3030 NOSIG RMK 8/500 HZY AC

EXPIRED METARs :
  • 270246Z 02012KT 9SM BKN020 22/08 A3027 NOSIG RMK SLP054 52018 969 8/500 HZY AC CI
  • 270150Z 04016KT 10SM BKN020 23/07 A3025 NOSIG RMK 8/400 HZY ISOL CI
  • 270115Z 05015KT 10SM SCT020CB 24/07 A3023 NOSIG RMK 8/300 HZY ISOL CI

TAF COR TAF MMMX
Valid from the 27 at 00:00 until the 28 at 06:00 UTC


270124Z 2700/2806 03010KT P6SM SCT020CB TX28/2721Z TN16/2712Z
BECMG 2706/2708 19005KT SCT020
FM271800 04010KT P6SM SCT020 BKN250
TEMPO 2723/2803 SCT020CB VC TS
FM280300 04005KT P6SM SCT020 BKN250
MMFR FIR / North America



MET'MAP, your aeronautical weather chart ! - Copyright ORBIFLY December 2007 - Disclaimer

ORBIFLY MET'MAP TEAM :

Programming & Development : Alexandra Zaïnal
Concept & Development : Baudouin d'Aumeries
Co-Development & Prog : Marc-Olivier Méhu
Technical & hardware support : Manuel Goepfert

Contact : metmap@orbifly.com




SOURCES & CREDITS :

   NOAA       Earth
Advisory